createdAt,value
2022-12-22T16:41:48.022Z,109.22
2022-12-22T16:43:51.091Z,79.10
2022-12-22T16:45:27.373Z,77.18
2022-12-22T16:47:01.492Z,86.55
2022-12-22T16:48:39.781Z,79.72
2022-12-22T16:50:19.487Z,69.90
2022-12-22T16:51:54.555Z,66.97
2022-12-22T16:53:28.733Z,60.05
2022-12-22T16:55:02.828Z,51.38
2022-12-22T16:56:36.100Z,51.65
2022-12-22T16:58:13.956Z,56.67
2022-12-22T16:59:48.572Z,52.50
2022-12-22T17:01:30.575Z,50.13
2022-12-22T17:03:08.430Z,52.67
2022-12-22T17:04:41.927Z,52.58
2022-12-22T17:06:15.226Z,73.90
2022-12-22T17:07:48.819Z,70.68
2022-12-22T17:09:25.069Z,51.53
2022-12-22T17:11:08.228Z,58.92
2022-12-22T17:12:45.272Z,72.47
2022-12-22T17:14:28.502Z,72.35
2022-12-22T17:16:01.856Z,75.97
2022-12-22T17:17:38.588Z,185.00
2022-12-22T17:19:16.226Z,88.40
2022-12-22T17:20:52.738Z,65.35
2022-12-22T17:22:29.207Z,63.75
2022-12-22T17:24:04.932Z,62.65
2022-12-22T17:25:38.180Z,62.20
2022-12-22T17:27:14.433Z,72.63
2022-12-22T17:28:48.477Z,50.97
2022-12-22T17:30:24.529Z,51.42
2022-12-22T17:31:59.005Z,54.72
2022-12-22T17:33:32.533Z,52.38
2022-12-22T17:35:06.644Z,94.55
2022-12-22T17:36:40.263Z,120.60
2022-12-22T17:38:15.473Z,113.55
2022-12-22T17:39:51.249Z,103.95
2022-12-22T17:41:24.512Z,136.05
2022-12-22T17:42:59.946Z,112.78
2022-12-22T17:44:36.642Z,125.10
2022-12-22T17:46:16.167Z,92.50
2022-12-22T17:47:49.372Z,131.32
2022-12-22T17:49:22.837Z,119.85
2022-12-22T17:50:56.278Z,61.13
2022-12-22T17:52:29.521Z,55.13
2022-12-22T17:54:02.935Z,61.90
2022-12-22T17:57:32.130Z,60.83
2022-12-22T17:59:05.450Z,67.68
2022-12-22T18:00:38.685Z,65.82
2022-12-22T18:02:18.455Z,59.70
2022-12-22T18:03:52.203Z,64.38
2022-12-22T18:05:27.610Z,64.15
2022-12-22T18:07:00.857Z,60.78
2022-12-22T18:08:34.452Z,58.55
2022-12-22T18:10:09.265Z,73.32
2022-12-22T18:11:46.055Z,77.75
2022-12-22T18:13:22.679Z,71.82
2022-12-22T18:14:55.813Z,85.65
2022-12-22T18:16:29.397Z,96.15
2022-12-22T18:18:04.021Z,105.28
2022-12-22T18:19:37.126Z,87.03
2022-12-22T18:21:16.337Z,90.72
2022-12-22T18:22:52.282Z,76.53
2022-12-22T18:24:25.752Z,74.50
2022-12-22T18:25:59.221Z,72.30
2022-12-22T18:27:32.469Z,77.88
2022-12-22T18:29:06.852Z,78.07
2022-12-22T18:30:40.220Z,76.13
2022-12-22T18:32:17.283Z,103.80
2022-12-22T18:33:55.373Z,79.68
2022-12-22T18:35:29.195Z,74.63
2022-12-22T18:37:03.132Z,84.18
2022-12-22T18:38:36.815Z,84.05
2022-12-22T18:40:28.213Z,90.50
2022-12-22T18:42:02.111Z,126.30
2022-12-22T18:43:35.300Z,115.43
2022-12-22T18:45:15.033Z,121.90
2022-12-22T18:46:49.021Z,109.75
2022-12-22T18:48:22.654Z,109.43
2022-12-22T18:49:58.096Z,123.22
2022-12-22T18:51:31.668Z,120.47
2022-12-22T18:53:13.553Z,116.78
2022-12-22T18:54:48.688Z,142.45
2022-12-22T18:56:22.098Z,170.57
2022-12-22T18:57:57.251Z,145.50
2022-12-22T18:59:32.666Z,133.45
2022-12-22T19:01:06.465Z,136.88
2022-12-22T19:02:39.840Z,106.60
2022-12-22T19:04:14.742Z,94.80
2022-12-22T19:05:49.794Z,88.75
2022-12-22T19:07:25.005Z,100.47
2022-12-22T19:08:58.448Z,76.30
2022-12-22T19:10:39.105Z,77.75
2022-12-22T19:12:15.020Z,79.65
2022-12-22T19:13:51.219Z,85.78
2022-12-22T19:15:29.113Z,78.63
2022-12-22T19:17:02.463Z,67.68
2022-12-22T19:18:35.630Z,89.18
2022-12-22T19:20:16.114Z,88.88
2022-12-22T19:21:50.666Z,91.85
2022-12-22T19:23:26.096Z,92.55
2022-12-22T19:24:59.257Z,110.00
2022-12-22T19:26:32.551Z,114.82
2022-12-22T19:28:08.845Z,112.65
2022-12-22T19:29:42.073Z,123.43
2022-12-22T19:31:22.629Z,86.13
2022-12-22T19:33:01.558Z,106.43
2022-12-22T19:34:34.840Z,109.40
2022-12-22T19:36:09.154Z,112.78
2022-12-22T19:37:43.823Z,115.28
2022-12-22T19:39:17.151Z,109.50
2022-12-22T19:40:52.079Z,102.28
2022-12-22T19:42:26.923Z,112.70
2022-12-22T19:44:00.156Z,119.18
2022-12-22T19:45:35.913Z,118.45
2022-12-22T19:47:17.027Z,129.70
2022-12-22T19:48:50.260Z,118.95
2022-12-22T19:50:25.408Z,130.82
2022-12-22T19:51:58.932Z,129.77
2022-12-22T19:53:33.464Z,126.72
2022-12-22T19:55:07.168Z,104.63
2022-12-22T19:56:42.259Z,102.93
2022-12-22T19:58:19.453Z,99.82
2022-12-22T19:59:55.097Z,105.30
2022-12-22T20:01:28.517Z,99.13
2022-12-22T20:03:01.885Z,114.75
2022-12-22T20:04:35.124Z,84.13
2022-12-22T20:06:09.086Z,91.53
2022-12-22T20:07:42.295Z,80.15
2022-12-22T20:09:16.917Z,88.25
2022-12-22T20:10:56.293Z,82.82
2022-12-22T20:12:34.395Z,85.22
2022-12-22T20:14:07.563Z,66.60
2022-12-22T20:15:41.499Z,67.43
2022-12-22T20:17:14.608Z,125.82
2022-12-22T20:18:48.799Z,80.78
2022-12-22T20:20:24.650Z,81.57
2022-12-22T20:21:57.843Z,91.72
2022-12-22T20:23:33.150Z,83.05
2022-12-22T20:25:11.168Z,75.43
2022-12-22T20:26:50.153Z,91.70
2022-12-22T20:28:28.624Z,98.15
2022-12-22T20:30:02.226Z,84.35
2022-12-22T20:31:35.535Z,84.13
2022-12-22T20:33:09.109Z,93.55
2022-12-22T20:34:42.780Z,83.07
2022-12-22T20:36:21.281Z,83.53
2022-12-22T20:37:54.413Z,76.28
2022-12-22T20:39:27.633Z,79.35
2022-12-22T20:41:03.670Z,66.40
2022-12-22T20:42:36.824Z,62.03
2022-12-22T20:44:09.997Z,42.33
2022-12-22T20:45:44.851Z,45.70
2022-12-22T20:47:22.382Z,40.40
2022-12-22T20:48:57.525Z,46.70
2022-12-22T20:50:33.961Z,38.90
2022-12-22T20:52:07.188Z,37.55
2022-12-22T20:53:40.375Z,46.55
2022-12-22T20:55:15.093Z,40.83
2022-12-22T20:56:49.733Z,48.50
2022-12-22T20:58:25.756Z,38.20
2022-12-22T20:59:58.875Z,35.95
2022-12-22T21:01:32.131Z,39.20
2022-12-22T21:03:05.442Z,40.53
2022-12-22T21:04:38.726Z,36.25
2022-12-22T21:06:27.199Z,37.78
2022-12-22T21:08:00.400Z,32.65
2022-12-22T21:09:33.595Z,32.08
2022-12-22T21:11:06.875Z,37.15
2022-12-22T21:12:41.400Z,32.20
2022-12-22T21:14:15.135Z,34.38
2022-12-22T21:15:51.333Z,31.25
2022-12-22T21:17:24.541Z,33.80
2022-12-22T21:18:57.617Z,32.55
2022-12-22T21:20:32.832Z,35.13
2022-12-22T21:22:06.338Z,33.95
2022-12-22T21:23:39.648Z,34.95
2022-12-22T21:25:12.913Z,36.63
2022-12-22T21:26:49.106Z,27.95
2022-12-22T21:28:33.745Z,29.88
2022-12-22T21:30:15.639Z,27.92
2022-12-22T21:31:48.959Z,28.30
2022-12-22T21:33:23.524Z,33.20
2022-12-22T21:35:01.220Z,36.55
2022-12-22T21:36:37.525Z,48.35
2022-12-22T21:38:18.141Z,63.92
2022-12-22T21:39:51.415Z,35.60
2022-12-22T21:41:44.893Z,40.75
2022-12-22T21:43:18.331Z,40.92
2022-12-22T21:44:52.844Z,38.80
2022-12-22T21:46:26.242Z,38.40
2022-12-22T21:48:02.230Z,34.38
2022-12-22T21:49:35.387Z,39.20
2022-12-22T21:51:08.527Z,36.28
2022-12-22T21:52:49.951Z,38.65
2022-12-22T21:54:25.193Z,40.28
2022-12-22T21:55:58.345Z,33.75
2022-12-22T21:57:31.491Z,35.67
2022-12-22T21:59:04.740Z,36.92
2022-12-22T22:00:42.366Z,36.15
2022-12-22T22:02:17.356Z,32.75
2022-12-22T22:03:50.661Z,33.45
2022-12-22T22:05:27.681Z,37.83
2022-12-22T22:07:00.807Z,48.53
2022-12-22T22:08:34.282Z,55.00
2022-12-22T22:10:07.457Z,76.20
2022-12-22T22:11:54.688Z,151.77
2022-12-22T22:13:27.820Z,164.50
2022-12-22T22:15:00.959Z,170.57
2022-12-22T22:16:35.481Z,139.43
2022-12-22T22:18:08.710Z,101.75
2022-12-22T22:19:41.856Z,97.70
2022-12-22T22:21:16.667Z,112.10
2022-12-22T22:22:51.266Z,102.97
2022-12-22T22:24:24.365Z,103.65
2022-12-22T22:26:01.011Z,104.95
2022-12-22T22:27:34.204Z,125.03
2022-12-22T22:29:07.516Z,127.30
2022-12-22T22:30:43.060Z,111.63
2022-12-22T22:32:18.145Z,123.13
2022-12-22T22:33:51.359Z,110.10
2022-12-22T22:35:25.729Z,124.93
2022-12-22T22:36:58.908Z,113.88
2022-12-22T22:38:32.018Z,124.68
2022-12-22T22:40:06.026Z,124.25
2022-12-22T22:41:43.196Z,97.78
2022-12-22T22:43:16.841Z,93.88
2022-12-22T22:44:49.945Z,81.57
2022-12-22T22:46:23.236Z,66.45
2022-12-22T22:47:57.873Z,65.47
2022-12-22T22:49:31.104Z,65.30
2022-12-22T22:51:04.193Z,54.60
2022-12-22T22:52:38.175Z,46.53
2022-12-22T22:54:13.156Z,40.17
2022-12-22T22:55:46.442Z,35.95
2022-12-22T22:57:20.483Z,36.88
2022-12-22T22:58:52.649Z,27.92
2022-12-22T23:00:25.935Z,29.83
2022-12-22T23:01:59.173Z,41.00
2022-12-22T23:03:33.856Z,37.88
2022-12-22T23:05:07.989Z,36.45
2022-12-22T23:06:42.483Z,36.35
2022-12-22T23:08:15.574Z,42.38
2022-12-22T23:09:48.720Z,31.17
2022-12-22T23:11:21.103Z,29.88
2022-12-22T23:12:54.308Z,37.65
2022-12-22T23:14:27.829Z,42.45
2022-12-22T23:16:03.190Z,32.40
2022-12-22T23:17:36.347Z,31.98
2022-12-22T23:19:10.968Z,44.25
2022-12-22T23:20:45.719Z,75.03
2022-12-22T23:22:17.908Z,47.38
2022-12-22T23:23:55.905Z,40.15
2022-12-22T23:25:29.140Z,35.63
2022-12-22T23:27:02.509Z,29.17
2022-12-22T23:28:34.736Z,32.08
2022-12-22T23:30:09.926Z,36.58
2022-12-22T23:31:42.146Z,43.25
2022-12-22T23:33:15.399Z,38.60
2022-12-22T23:34:50.537Z,48.45
2022-12-22T23:36:23.692Z,44.70
2022-12-22T23:37:55.897Z,63.15
2022-12-22T23:39:29.137Z,40.50
2022-12-22T23:41:06.897Z,39.10
2022-12-22T23:42:40.022Z,53.20
2022-12-22T23:44:13.132Z,73.00
2022-12-22T23:45:46.197Z,42.38
2022-12-22T23:47:19.310Z,38.30
2022-12-22T23:48:52.502Z,62.97
2022-12-22T23:50:27.942Z,45.53
2022-12-22T23:52:01.204Z,36.35
2022-12-22T23:53:34.472Z,64.00
2022-12-22T23:55:08.431Z,40.83
2022-12-22T23:56:41.785Z,39.22
2022-12-22T23:58:14.110Z,41.22
2022-12-22T23:59:47.321Z,29.58
